createdAt,value
2022-08-24T00:02:01.591Z,14.30
2022-08-24T00:04:32.152Z,9.50
2022-08-24T00:07:02.527Z,10.40
2022-08-24T00:09:32.819Z,9.90
2022-08-24T00:12:01.721Z,16.40
2022-08-24T00:14:31.395Z,12.00
2022-08-24T00:17:00.350Z,12.30
2022-08-24T00:19:29.333Z,12.50
2022-08-24T00:21:57.335Z,19.90
2022-08-24T00:24:25.146Z,14.70
2022-08-24T00:26:54.627Z,11.30
2022-08-24T00:29:23.515Z,13.30
2022-08-24T00:31:51.750Z,14.10
2022-08-24T00:34:20.048Z,10.50
2022-08-24T00:36:48.119Z,13.30
2022-08-24T00:39:16.166Z,10.70
2022-08-24T00:41:46.686Z,13.40
2022-08-24T00:44:16.922Z,13.60
2022-08-24T00:47:07.999Z,12.50
2022-08-24T00:49:41.135Z,10.50
2022-08-24T00:52:09.344Z,11.80
2022-08-24T00:54:46.115Z,11.90
2022-08-24T00:57:20.250Z,12.80
2022-08-24T00:59:58.352Z,10.60
2022-08-24T01:02:31.841Z,11.90
2022-08-24T01:07:53.770Z,13.20
2022-08-24T01:10:26.336Z,10.70
2022-08-24T01:13:01.892Z,13.70
2022-08-24T01:15:33.463Z,13.00
2022-08-24T01:18:21.757Z,11.80
2022-08-24T01:20:57.337Z,9.90
2022-08-24T01:23:44.449Z,11.50
2022-08-24T01:26:18.525Z,8.70
2022-08-24T01:28:51.082Z,7.60
2022-08-24T01:31:23.047Z,12.40
2022-08-24T01:33:54.354Z,8.70
2022-08-24T01:36:48.483Z,11.50
2022-08-24T01:39:21.615Z,8.60
2022-08-24T01:41:49.795Z,14.20
2022-08-24T01:44:19.725Z,14.40
2022-08-24T01:46:50.126Z,9.80
2022-08-24T01:49:18.065Z,12.20
2022-08-24T01:51:46.561Z,9.00
2022-08-24T01:54:16.431Z,10.40
2022-08-24T01:56:44.483Z,10.40
2022-08-24T01:59:13.890Z,7.80
2022-08-24T02:01:49.071Z,13.50
2022-08-24T02:04:17.704Z,11.40
2022-08-24T02:06:47.126Z,10.40
2022-08-24T02:09:15.459Z,10.20
2022-08-24T02:11:44.020Z,12.10
2022-08-24T02:14:13.376Z,10.10
2022-08-24T02:16:43.418Z,10.90
2022-08-24T02:19:11.340Z,12.20
2022-08-24T02:21:39.954Z,11.00
2022-08-24T02:24:08.861Z,12.50
2022-08-24T02:26:36.841Z,10.20
2022-08-24T02:29:04.874Z,9.40
2022-08-24T02:31:34.063Z,9.20
2022-08-24T02:34:03.135Z,9.00
2022-08-24T02:36:31.657Z,9.50
2022-08-24T02:38:59.947Z,10.20
2022-08-24T02:41:28.148Z,10.40
2022-08-24T02:43:57.171Z,12.40
2022-08-24T02:46:30.027Z,11.00
2022-08-24T02:49:10.471Z,13.90
2022-08-24T02:51:45.533Z,11.50
2022-08-24T02:54:18.431Z,10.70
2022-08-24T02:56:48.502Z,9.10
2022-08-24T02:59:16.907Z,8.90
2022-08-24T03:01:45.873Z,14.40
2022-08-24T03:04:14.677Z,10.80
2022-08-24T03:06:43.034Z,10.10
2022-08-24T03:09:12.451Z,13.00
2022-08-24T03:11:44.268Z,13.80
2022-08-24T03:14:14.709Z,12.30
2022-08-24T03:16:42.846Z,9.50
2022-08-24T03:19:11.074Z,13.20
2022-08-24T03:21:39.362Z,9.30
2022-08-24T03:24:07.899Z,11.70
2022-08-24T03:26:35.952Z,8.90
2022-08-24T03:29:04.034Z,12.10
2022-08-24T03:31:32.504Z,13.20
2022-08-24T03:34:00.705Z,12.10
2022-08-24T03:36:28.644Z,10.30
2022-08-24T03:38:56.495Z,9.00
2022-08-24T03:41:25.575Z,13.50
2022-08-24T03:43:56.177Z,11.20
2022-08-24T03:46:28.958Z,9.60
2022-08-24T03:48:59.395Z,11.30
2022-08-24T03:51:29.224Z,13.40
2022-08-24T03:53:59.390Z,11.90
2022-08-24T03:56:28.040Z,9.10
2022-08-24T03:58:56.576Z,8.50
2022-08-24T04:01:24.939Z,14.20
2022-08-24T04:03:54.570Z,9.70
2022-08-24T04:06:23.525Z,9.40
2022-08-24T04:08:53.465Z,11.60
2022-08-24T04:11:27.162Z,10.50
2022-08-24T04:13:57.272Z,10.10
2022-08-24T04:16:27.094Z,11.00
2022-08-24T04:18:57.765Z,9.40
2022-08-24T04:21:28.313Z,10.20
2022-08-24T04:23:58.095Z,9.50
2022-08-24T04:26:44.704Z,12.70
2022-08-24T04:29:16.703Z,11.60
2022-08-24T04:31:45.337Z,10.60
2022-08-24T04:34:16.196Z,11.20
2022-08-24T04:36:45.667Z,9.50
2022-08-24T04:39:14.899Z,11.00
2022-08-24T04:41:43.096Z,13.50
2022-08-24T04:44:12.543Z,13.70
2022-08-24T04:46:40.495Z,9.50
2022-08-24T04:49:08.745Z,9.50
2022-08-24T04:51:38.845Z,12.50
2022-08-24T04:54:08.342Z,11.20
2022-08-24T04:56:36.695Z,10.90
2022-08-24T04:59:05.715Z,9.90
2022-08-24T05:01:34.625Z,10.80
2022-08-24T05:04:04.616Z,10.60
2022-08-24T05:06:32.997Z,12.90
2022-08-24T05:09:03.090Z,11.20
2022-08-24T05:11:31.487Z,13.60
2022-08-24T05:13:59.802Z,11.50
2022-08-24T05:16:28.779Z,12.70
2022-08-24T05:19:00.497Z,13.20
2022-08-24T05:21:28.585Z,11.00
2022-08-24T05:23:57.068Z,8.30
2022-08-24T05:26:27.106Z,14.90
2022-08-24T05:28:57.668Z,9.70
2022-08-24T05:31:28.543Z,11.50
2022-08-24T05:33:56.974Z,18.00
2022-08-24T05:36:31.507Z,10.70
2022-08-24T05:39:10.967Z,15.70
2022-08-24T05:41:44.272Z,15.60
2022-08-24T05:44:18.122Z,12.30
2022-08-24T05:46:46.586Z,16.80
2022-08-24T05:49:14.575Z,11.10
2022-08-24T05:51:42.928Z,14.90
2022-08-24T05:54:13.898Z,9.80
2022-08-24T05:56:42.514Z,12.60
2022-08-24T05:59:11.019Z,12.10
2022-08-24T06:01:43.334Z,11.10
2022-08-24T06:04:13.466Z,12.80
2022-08-24T06:06:43.166Z,12.20
2022-08-24T06:09:12.640Z,11.30
2022-08-24T06:11:41.712Z,14.50
2022-08-24T06:14:13.176Z,13.10
2022-08-24T06:16:43.953Z,7.40
2022-08-24T06:19:14.946Z,15.40
2022-08-24T06:21:44.566Z,14.90
2022-08-24T06:24:15.937Z,15.20
2022-08-24T06:27:03.735Z,13.50
2022-08-24T06:29:34.697Z,15.90
2022-08-24T06:32:02.987Z,15.00
2022-08-24T06:34:31.036Z,13.20
2022-08-24T06:36:59.311Z,15.50
2022-08-24T06:39:27.838Z,10.90
2022-08-24T06:41:56.666Z,12.60
2022-08-24T06:44:24.738Z,16.40
2022-08-24T06:46:52.897Z,17.70
2022-08-24T06:49:21.448Z,17.80
2022-08-24T06:51:50.922Z,13.60
2022-08-24T06:54:24.137Z,15.80
2022-08-24T06:56:51.980Z,17.10
2022-08-24T06:59:21.098Z,14.00
2022-08-24T07:01:49.222Z,20.60
2022-08-24T07:04:17.136Z,13.50
2022-08-24T07:06:45.525Z,14.40
2022-08-24T07:09:13.543Z,26.10
2022-08-24T07:11:41.566Z,17.40
2022-08-24T07:14:09.643Z,19.50
2022-08-24T07:16:37.905Z,18.60
2022-08-24T07:19:06.595Z,26.60
2022-08-24T07:21:34.486Z,33.20
2022-08-24T07:24:03.595Z,23.30
2022-08-24T07:26:32.105Z,20.80
2022-08-24T07:29:06.485Z,20.70
2022-08-24T07:31:39.114Z,22.40
2022-08-24T07:34:09.159Z,31.60
2022-08-24T07:36:44.260Z,23.70
2022-08-24T07:39:12.935Z,31.60
2022-08-24T07:44:31.976Z,33.50
2022-08-24T07:47:15.152Z,32.00
2022-08-24T07:49:48.388Z,30.30
2022-08-24T07:52:16.535Z,27.90
2022-08-24T07:54:44.420Z,29.10
2022-08-24T07:57:12.334Z,27.70
2022-08-24T07:59:40.147Z,27.40
2022-08-24T08:02:10.423Z,29.60
2022-08-24T08:04:38.539Z,35.10
2022-08-24T08:07:07.691Z,35.60
2022-08-24T08:09:39.785Z,33.00
2022-08-24T08:12:08.266Z,29.40
2022-08-24T08:14:36.127Z,34.20
2022-08-24T08:17:04.915Z,32.80
2022-08-24T08:19:33.338Z,28.00
2022-08-24T08:22:20.206Z,22.60
2022-08-24T08:24:48.136Z,26.80
2022-08-24T08:27:16.638Z,34.40
2022-08-24T08:29:44.791Z,33.60
2022-08-24T08:32:17.192Z,28.40
2022-08-24T08:34:45.949Z,34.70
2022-08-24T08:37:14.532Z,35.10
2022-08-24T08:39:43.201Z,32.30
2022-08-24T08:42:28.503Z,30.90
2022-08-24T08:44:59.282Z,29.50
2022-08-24T08:47:45.586Z,29.10
2022-08-24T08:50:19.027Z,38.40
2022-08-24T08:53:10.007Z,41.20
2022-08-24T08:56:03.480Z,39.60
2022-08-24T08:58:59.472Z,37.80
2022-08-24T09:01:44.302Z,37.80
2022-08-24T09:04:36.863Z,37.70
2022-08-24T09:07:25.150Z,37.00
2022-08-24T09:10:05.096Z,33.70
2022-08-24T09:13:09.156Z,33.80
2022-08-24T09:16:09.712Z,40.00
2022-08-24T09:18:57.000Z,39.40
2022-08-24T09:21:41.815Z,41.10
2022-08-24T09:24:31.789Z,47.40
2022-08-24T09:27:14.088Z,46.10
2022-08-24T09:30:19.435Z,37.30
2022-08-24T09:33:10.610Z,45.80
2022-08-24T09:35:56.847Z,40.80
2022-08-24T09:38:43.583Z,43.70
2022-08-24T09:41:11.562Z,34.80
2022-08-24T09:44:03.395Z,43.40
2022-08-24T09:47:09.806Z,48.40
2022-08-24T09:50:02.475Z,48.90
2022-08-24T09:52:56.533Z,44.80
2022-08-24T09:55:36.765Z,56.90
2022-08-24T09:58:10.675Z,46.00
2022-08-24T10:01:09.195Z,45.10
2022-08-24T10:03:56.104Z,45.70
2022-08-24T10:06:38.385Z,47.90
2022-08-24T10:09:12.276Z,50.60
2022-08-24T10:11:42.850Z,47.90
2022-08-24T10:14:49.620Z,49.70
2022-08-24T10:17:43.060Z,51.00
2022-08-24T10:20:26.281Z,49.90
2022-08-24T10:23:11.277Z,50.00
2022-08-24T10:26:25.718Z,49.20
2022-08-24T10:29:12.011Z,44.10
2022-08-24T10:32:07.775Z,44.20
2022-08-24T10:35:00.835Z,47.50
2022-08-24T10:38:13.546Z,52.90
2022-08-24T10:41:00.265Z,54.70
2022-08-24T10:43:53.185Z,46.40
2022-08-24T10:46:27.207Z,43.20
2022-08-24T10:49:46.576Z,50.20
2022-08-24T10:52:47.325Z,62.90
2022-08-24T10:55:28.864Z,45.80
2022-08-24T10:58:18.205Z,53.10
2022-08-24T11:00:46.571Z,48.20
2022-08-24T11:03:19.977Z,45.20
2022-08-24T11:05:57.298Z,53.00
2022-08-24T11:08:33.607Z,53.50
2022-08-24T11:11:07.074Z,50.20
2022-08-24T11:13:37.745Z,54.40
2022-08-24T11:16:06.857Z,44.70
2022-08-24T11:18:55.665Z,53.90
2022-08-24T11:21:35.580Z,53.00
2022-08-24T11:24:12.310Z,53.20
2022-08-24T11:27:03.941Z,40.40
2022-08-24T11:29:56.547Z,53.90
2022-08-24T11:32:30.745Z,53.30
2022-08-24T11:35:09.710Z,57.50
2022-08-24T11:37:39.616Z,45.70
2022-08-24T11:40:09.502Z,45.50
2022-08-24T11:42:40.093Z,52.60
2022-08-24T11:45:30.530Z,60.50
2022-08-24T11:48:14.117Z,43.40
2022-08-24T11:51:10.557Z,56.50
2022-08-24T11:53:56.865Z,38.10
2022-08-24T11:56:35.875Z,51.90
2022-08-24T11:59:17.924Z,40.30
2022-08-24T12:02:04.471Z,59.80
2022-08-24T12:05:10.897Z,39.90
2022-08-24T12:08:10.509Z,51.10
2022-08-24T12:10:50.240Z,48.60
2022-08-24T12:13:41.305Z,42.40
2022-08-24T12:16:17.378Z,42.50
2022-08-24T12:18:56.488Z,39.40
2022-08-24T12:21:29.384Z,42.50
2022-08-24T12:24:04.844Z,47.40
2022-08-24T12:26:43.974Z,46.30
2022-08-24T12:29:50.448Z,43.90
2022-08-24T12:32:23.780Z,39.10
2022-08-24T12:34:58.870Z,47.20
2022-08-24T12:37:30.020Z,57.90
2022-08-24T12:40:27.418Z,47.70
2022-08-24T12:43:10.089Z,51.20
2022-08-24T12:45:38.130Z,44.60
2022-08-24T12:48:30.218Z,49.00
2022-08-24T12:51:14.705Z,49.20
2022-08-24T12:54:05.504Z,55.50
2022-08-24T12:56:36.308Z,54.40
2022-08-24T12:59:30.589Z,51.00
2022-08-24T13:02:26.809Z,49.10
2022-08-24T13:05:03.507Z,55.30
2022-08-24T13:07:40.408Z,49.00
2022-08-24T13:10:14.760Z,51.60
2022-08-24T13:12:43.718Z,54.70
2022-08-24T13:15:23.804Z,51.10
2022-08-24T13:18:07.515Z,48.00
2022-08-24T13:20:36.389Z,45.20
2022-08-24T13:23:13.477Z,47.80
2022-08-24T13:25:47.309Z,47.00
2022-08-24T13:28:41.649Z,60.60
2022-08-24T13:31:27.692Z,57.00
2022-08-24T13:34:09.353Z,55.20
2022-08-24T13:37:06.157Z,45.00
2022-08-24T13:39:49.394Z,51.70
2022-08-24T13:42:35.645Z,48.20
2022-08-24T13:45:34.919Z,51.10
2022-08-24T13:48:09.084Z,62.20
2022-08-24T13:51:05.707Z,71.00
2022-08-24T13:54:08.529Z,49.30
2022-08-24T13:57:03.314Z,49.30
2022-08-24T13:59:37.306Z,52.30
2022-08-24T14:02:14.446Z,46.10
2022-08-24T14:05:08.740Z,44.80
2022-08-24T14:07:57.100Z,45.10
2022-08-24T14:10:27.960Z,47.80
2022-08-24T14:13:26.583Z,37.90
2022-08-24T14:16:30.538Z,35.40
2022-08-24T14:19:15.374Z,37.30
2022-08-24T14:21:53.710Z,28.90
2022-08-24T14:24:45.279Z,32.00
2022-08-24T14:27:37.719Z,34.10
2022-08-24T14:30:17.806Z,44.00
2022-08-24T14:32:58.436Z,37.80
2022-08-24T14:35:43.508Z,46.30
2022-08-24T14:38:23.425Z,47.60
2022-08-24T14:41:18.618Z,50.50
2022-08-24T14:44:14.781Z,45.70
2022-08-24T14:47:06.728Z,41.50
2022-08-24T14:49:41.409Z,42.80
2022-08-24T14:52:33.374Z,43.60
2022-08-24T14:55:29.906Z,52.60
2022-08-24T14:58:19.994Z,44.90
2022-08-24T15:01:15.242Z,51.90
2022-08-24T15:04:37.384Z,55.40
2022-08-24T15:07:37.745Z,45.80
2022-08-24T15:10:15.114Z,48.40
2022-08-24T15:12:49.226Z,50.70
2022-08-24T15:15:55.998Z,51.40
2022-08-24T15:18:47.009Z,42.40
2022-08-24T15:21:14.737Z,42.20
2022-08-24T15:24:16.922Z,51.80
2022-08-24T15:27:11.047Z,49.50
2022-08-24T15:29:58.270Z,50.90
2022-08-24T15:32:59.267Z,49.80
2022-08-24T15:35:30.158Z,52.90
2022-08-24T15:37:58.776Z,61.50
2022-08-24T15:40:29.807Z,46.20
2022-08-24T15:43:18.628Z,61.80
2022-08-24T15:45:51.637Z,51.40
2022-08-24T15:48:24.909Z,51.30
2022-08-24T15:50:56.033Z,53.90
2022-08-24T15:53:42.905Z,57.50
2022-08-24T15:56:30.108Z,57.00
2022-08-24T15:59:11.493Z,55.40
2022-08-24T16:01:58.806Z,46.20
2022-08-24T16:04:43.678Z,49.30
2022-08-24T16:07:23.684Z,49.70
2022-08-24T16:10:12.557Z,50.60
2022-08-24T16:12:40.424Z,54.70
2022-08-24T16:15:17.410Z,53.20
2022-08-24T16:17:51.760Z,53.00
2022-08-24T16:20:26.554Z,43.00
2022-08-24T16:23:13.766Z,49.30
2022-08-24T16:25:50.489Z,48.60
2022-08-24T16:28:22.032Z,54.20
2022-08-24T16:30:54.822Z,60.70
2022-08-24T16:33:34.754Z,61.10
2022-08-24T16:36:16.668Z,54.60
2022-08-24T16:38:49.898Z,55.80
2022-08-24T16:41:21.535Z,54.10
2022-08-24T16:43:50.148Z,55.20
2022-08-24T16:46:23.838Z,50.40
2022-08-24T16:48:54.382Z,40.70
2022-08-24T16:51:24.869Z,55.70
2022-08-24T16:53:54.044Z,57.40
2022-08-24T16:56:22.939Z,50.60
2022-08-24T16:58:51.485Z,44.50
2022-08-24T17:01:20.531Z,50.90
2022-08-24T17:03:48.632Z,58.00
2022-08-24T17:06:19.031Z,49.70
2022-08-24T17:08:47.819Z,63.10
2022-08-24T17:11:16.699Z,47.90
2022-08-24T17:13:51.828Z,66.30
2022-08-24T17:16:21.981Z,60.70
2022-08-24T17:18:50.167Z,55.10
2022-08-24T17:21:19.330Z,42.90
2022-08-24T17:23:47.691Z,53.10
2022-08-24T17:26:21.571Z,56.80
2022-08-24T17:28:54.711Z,43.60
2022-08-24T17:31:26.249Z,50.10
2022-08-24T17:33:54.596Z,52.30
2022-08-24T17:36:23.959Z,56.80
2022-08-24T17:38:56.063Z,54.80
2022-08-24T17:41:25.801Z,48.30
2022-08-24T17:43:54.188Z,49.70
2022-08-24T17:46:22.680Z,50.90
2022-08-24T17:48:50.750Z,61.60
2022-08-24T17:51:19.815Z,49.30
2022-08-24T17:53:47.775Z,49.20
2022-08-24T17:56:17.032Z,58.40
2022-08-24T17:59:05.302Z,55.80
2022-08-24T18:01:33.537Z,53.10
2022-08-24T18:04:01.424Z,42.80
2022-08-24T18:06:29.440Z,52.60
2022-08-24T18:09:03.115Z,43.00
2022-08-24T18:11:31.468Z,58.30
2022-08-24T18:14:01.664Z,54.80
2022-08-24T18:16:29.843Z,41.90
2022-08-24T18:18:58.408Z,41.80
2022-08-24T18:21:26.374Z,48.90
2022-08-24T18:23:54.339Z,48.60
2022-08-24T18:26:28.153Z,45.40
2022-08-24T18:29:00.335Z,46.60
2022-08-24T18:31:30.870Z,48.60
2022-08-24T18:33:59.126Z,42.40
2022-08-24T18:36:27.025Z,35.60
2022-08-24T18:38:54.967Z,50.50
2022-08-24T18:41:27.835Z,48.30
2022-08-24T18:43:56.042Z,43.20
2022-08-24T18:46:25.872Z,45.40
2022-08-24T18:48:53.788Z,45.00
2022-08-24T18:51:22.272Z,44.50
2022-08-24T18:54:03.176Z,46.00
2022-08-24T18:56:31.072Z,44.00
2022-08-24T18:58:58.962Z,47.10
2022-08-24T19:01:28.557Z,44.40
2022-08-24T19:03:56.937Z,46.30
2022-08-24T19:06:25.065Z,40.20
2022-08-24T19:08:52.935Z,44.70
2022-08-24T19:11:24.383Z,39.30
2022-08-24T19:13:52.415Z,47.80
2022-08-24T19:16:21.285Z,44.20
2022-08-24T19:18:51.145Z,56.40
2022-08-24T19:21:19.556Z,51.80
2022-08-24T19:23:47.620Z,51.60
2022-08-24T19:26:15.545Z,58.90
2022-08-24T19:28:45.042Z,51.80
2022-08-24T19:31:14.086Z,61.90
2022-08-24T19:33:49.834Z,54.50
2022-08-24T19:36:18.579Z,60.20
2022-08-24T19:38:47.776Z,53.10
2022-08-24T19:41:17.633Z,51.40
2022-08-24T19:44:09.665Z,46.20
2022-08-24T19:46:38.113Z,48.50
2022-08-24T19:49:08.588Z,47.50
2022-08-24T19:51:38.871Z,41.80
2022-08-24T19:54:07.099Z,43.40
2022-08-24T19:56:35.129Z,42.40
2022-08-24T19:59:08.924Z,36.90
2022-08-24T20:01:37.424Z,41.10
2022-08-24T20:04:07.610Z,43.00
2022-08-24T20:06:38.315Z,44.60
2022-08-24T20:09:07.031Z,35.60
2022-08-24T20:11:36.150Z,42.50
2022-08-24T20:14:04.176Z,31.20
2022-08-24T20:16:40.006Z,32.30
2022-08-24T20:19:10.884Z,37.70
2022-08-24T20:21:39.029Z,32.10
2022-08-24T20:24:07.195Z,19.20
2022-08-24T20:26:41.414Z,22.20
2022-08-24T20:29:10.829Z,24.80
2022-08-24T20:31:40.406Z,16.80
2022-08-24T20:34:08.277Z,18.60
2022-08-24T20:36:43.965Z,19.40
2022-08-24T20:39:23.905Z,16.40
2022-08-24T20:41:53.693Z,20.00
2022-08-24T20:44:22.570Z,15.60
2022-08-24T20:46:50.988Z,18.30
2022-08-24T20:49:24.773Z,21.10
2022-08-24T20:51:53.355Z,16.30
2022-08-24T20:54:21.402Z,17.10
2022-08-24T20:56:49.676Z,16.80
2022-08-24T20:59:19.017Z,17.50
2022-08-24T21:01:47.488Z,15.80
2022-08-24T21:04:15.470Z,18.10
2022-08-24T21:06:44.866Z,14.00
2022-08-24T21:09:14.516Z,18.50
2022-08-24T21:11:43.790Z,15.80
2022-08-24T21:14:13.194Z,15.30
2022-08-24T21:16:43.675Z,18.40
2022-08-24T21:19:18.219Z,13.40
2022-08-24T21:21:48.357Z,17.20
2022-08-24T21:24:16.551Z,18.30
2022-08-24T21:26:44.783Z,14.20
2022-08-24T21:29:12.651Z,18.50
2022-08-24T21:31:40.593Z,13.70
2022-08-24T21:34:27.979Z,14.00
2022-08-24T21:36:56.652Z,18.20
2022-08-24T21:39:25.694Z,16.90
2022-08-24T21:41:53.965Z,19.10
2022-08-24T21:44:22.217Z,19.70
2022-08-24T21:46:52.277Z,19.60
2022-08-24T21:49:21.358Z,23.00
2022-08-24T21:51:49.458Z,21.00
2022-08-24T21:54:17.471Z,18.20
2022-08-24T21:56:45.623Z,21.70
2022-08-24T21:59:13.563Z,21.10
2022-08-24T22:01:41.738Z,24.60
2022-08-24T22:04:11.423Z,19.40
2022-08-24T22:06:39.816Z,19.70
2022-08-24T22:09:08.287Z,20.30
2022-08-24T22:11:36.425Z,22.80
2022-08-24T22:14:04.965Z,16.10
2022-08-24T22:16:33.446Z,18.10
2022-08-24T22:19:05.914Z,15.20
2022-08-24T22:21:36.351Z,19.60
2022-08-24T22:24:04.646Z,20.70
2022-08-24T22:26:32.806Z,16.00
2022-08-24T22:29:02.050Z,17.50
2022-08-24T22:31:32.672Z,17.30
2022-08-24T22:34:03.006Z,13.40
2022-08-24T22:36:31.340Z,17.50
2022-08-24T22:38:59.948Z,16.90
2022-08-24T22:41:29.691Z,15.80
2022-08-24T22:44:19.316Z,18.80
2022-08-24T22:46:52.119Z,11.70
2022-08-24T22:49:22.450Z,8.70
2022-08-24T22:51:50.850Z,13.40
2022-08-24T22:54:20.270Z,11.30
2022-08-24T22:56:52.593Z,11.30
2022-08-24T22:59:54.276Z,15.30
2022-08-24T23:02:22.627Z,6.90
2022-08-24T23:04:53.017Z,10.90
2022-08-24T23:07:21.621Z,11.40
2022-08-24T23:09:49.970Z,8.20
2022-08-24T23:12:22.687Z,13.30
2022-08-24T23:14:52.322Z,10.00
2022-08-24T23:17:22.205Z,12.90
2022-08-24T23:20:06.049Z,10.40
2022-08-24T23:22:37.835Z,13.40
2022-08-24T23:25:08.684Z,8.70
2022-08-24T23:27:38.169Z,10.10
2022-08-24T23:30:12.781Z,8.90
2022-08-24T23:32:41.088Z,9.70
2022-08-24T23:35:09.609Z,11.90
2022-08-24T23:37:37.531Z,12.20
2022-08-24T23:40:06.103Z,8.40
2022-08-24T23:42:34.185Z,7.90
2022-08-24T23:45:02.560Z,10.60
2022-08-24T23:47:30.412Z,13.60
2022-08-24T23:50:06.733Z,9.20
2022-08-24T23:52:41.318Z,11.70
2022-08-24T23:55:21.092Z,10.00
2022-08-24T23:57:53.731Z,8.60
